Time;durP1;ratioP1;P1;durP2;ratioP2;P2;SDS_P1;SDS_P2;PMS_P1;PMS_P2;Temp;Humidity;BMP_temperature;BMP_pressure;BME280_temperature;BME280_humidity;BME280_pressure;Samples;Min_cycle;Max_cycle;Signal;HPM_P1;HPM_P2
2022/01/06 00:00:05;;;;;;;20.58;4.80;;;;;;;2.53;92.73;101490.78;5028774;28;20022;-70
2022/01/06 00:02:30;;;;;;;20.10;5.50;;;;;;;2.52;92.67;101504.81;5024291;28;20034;-70
2022/01/06 00:04:55;;;;;;;16.27;4.72;;;;;;;2.49;92.77;101504.91;5021069;28;20041;-70
2022/01/06 00:07:21;;;;;;;20.05;5.40;;;;;;;2.46;93.07;101511.09;5032519;28;20103;-70
2022/01/06 00:09:48;;;;;;;16.85;5.10;;;;;;;2.44;93.41;101512.91;5031288;28;20022;-70
2022/01/06 00:12:16;;;;;;;22.73;5.03;;;;;;;2.41;93.54;101505.16;5027644;28;20407;-70
2022/01/06 00:15:05;;;;;;;20.95;5.50;;;;;;;2.40;93.46;101509.53;5030710;28;20033;-69
2022/01/06 00:17:44;;;;;;;20.60;5.23;;;;;;;2.37;93.27;101517.50;5030594;28;20021;-70
2022/01/06 00:25:37;;;;;;;19.48;4.60;;;;;;;2.29;92.76;101516.88;5030619;28;20049;-69
2022/01/06 00:28:03;;;;;;;17.67;4.45;;;;;;;2.27;92.88;101515.22;5029629;28;20313;-69
2022/01/06 00:30:28;;;;;;;18.63;4.40;;;;;;;2.22;93.20;101515.38;5031454;28;20283;-69
2022/01/06 00:32:54;;;;;;;17.70;5.13;;;;;;;2.20;93.06;101520.66;5031662;28;20075;-70
2022/01/06 00:35:19;;;;;;;21.10;5.30;;;;;;;2.19;93.11;101532.03;5023583;28;20466;-70
2022/01/06 00:37:45;;;;;;;19.90;5.05;;;;;;;2.16;93.03;101520.78;5031740;28;20025;-69
2022/01/06 00:40:10;;;;;;;17.27;5.00;;;;;;;2.15;92.81;101538.28;5031760;28;20060;-69
2022/01/06 00:42:36;;;;;;;22.15;5.20;;;;;;;2.12;92.99;101532.28;5031790;28;20041;-69
2022/01/06 00:45:01;;;;;;;24.15;5.30;;;;;;;2.10;93.16;101532.31;5017766;28;20071;-69
2022/01/06 00:47:27;;;;;;;14.82;4.35;;;;;;;2.08;92.75;101539.34;5030007;28;20026;-70
2022/01/06 00:49:52;;;;;;;19.80;4.78;;;;;;;2.09;92.88;101542.84;5031585;28;20053;-70
2022/01/06 00:52:17;;;;;;;19.65;4.60;;;;;;;2.07;93.33;101547.28;5031193;28;20079;-70
2022/01/06 00:54:42;;;;;;;18.33;4.35;;;;;;;2.06;93.05;101545.56;5024977;28;20033;-70
2022/01/06 00:57:08;;;;;;;21.58;4.88;;;;;;;2.03;93.06;101543.88;5023486;28;20450;-69
2022/01/06 00:59:33;;;;;;;16.90;5.10;;;;;;;2.01;92.80;101538.66;5031724;28;20044;-70
2022/01/06 01:01:58;;;;;;;18.50;4.75;;;;;;;1.98;92.69;101535.28;5031395;28;20108;-70
2022/01/06 01:04:24;;;;;;;13.85;3.88;;;;;;;1.97;92.45;101542.31;5019554;28;20112;-70
2022/01/06 01:06:49;;;;;;;19.23;3.97;;;;;;;1.92;92.26;101536.34;5031094;28;20017;-70
2022/01/06 01:09:14;;;;;;;23.80;4.93;;;;;;;1.93;92.63;101538.06;5023801;28;20069;-68
2022/01/06 01:11:40;;;;;;;18.02;4.80;;;;;;;1.90;92.25;101548.63;5029993;28;20029;-70
2022/01/06 01:14:19;;;;;;;17.88;3.90;;;;;;;1.89;92.62;101546.91;5031389;28;20084;-68
2022/01/06 01:17:03;;;;;;;16.55;3.67;;;;;;;1.89;92.55;101548.69;5031208;28;20044;-69
2022/01/06 01:19:30;;;;;;;20.75;4.43;;;;;;;1.84;92.33;101539.16;5022914;28;20037;-69
2022/01/06 01:21:57;;;;;;;19.00;4.60;;;;;;;1.82;92.05;101546.22;5030571;28;20036;-69
2022/01/06 01:24:23;;;;;;;15.43;4.25;;;;;;;1.80;92.41;101545.41;5026292;28;20030;-69
2022/01/06 01:26:49;;;;;;;18.45;4.40;;;;;;;1.78;92.34;101543.72;5025350;28;20048;-70
2022/01/06 01:29:17;;;;;;;19.85;3.97;;;;;;;1.76;92.57;101546.38;5026418;28;20479;-69
2022/01/06 01:31:49;;;;;;;21.73;5.05;;;;;;;1.74;92.42;101550.81;5023650;28;20053;-69
2022/01/06 01:34:21;;;;;;;18.63;4.18;;;;;;;1.72;92.43;101563.09;5031075;28;20022;-70
2022/01/06 01:36:47;;;;;;;14.57;3.90;;;;;;;1.69;92.50;101557.94;5026414;28;20033;-70
2022/01/06 01:39:13;;;;;;;17.70;4.32;;;;;;;1.64;92.39;101565.94;5030908;28;20096;-69
2022/01/06 01:41:38;;;;;;;16.25;4.45;;;;;;;1.64;92.27;101565.94;5030723;28;20120;-70
2022/01/06 01:44:11;;;;;;;22.88;4.22;;;;;;;1.61;92.24;101567.78;5028544;28;20428;-68
2022/01/06 01:46:43;;;;;;;18.15;4.43;;;;;;;1.58;92.01;101567.84;5030416;28;20029;-68
2022/01/06 01:51:36;;;;;;;18.23;4.23;;;;;;;1.53;92.02;101581.06;5028919;28;20033;-68
2022/01/06 01:54:02;;;;;;;17.38;4.43;;;;;;;1.51;92.36;101589.88;5030440;28;20507;-68
2022/01/06 01:56:27;;;;;;;21.55;4.38;;;;;;;1.49;92.89;101587.31;5030581;28;20033;-67
2022/01/06 01:58:52;;;;;;;15.98;3.55;;;;;;;1.48;92.13;101598.66;5026605;28;20045;-68
2022/01/06 02:01:18;;;;;;;12.77;4.10;;;;;;;1.44;92.31;101603.13;5028601;28;20053;-67
2022/01/06 02:03:43;;;;;;;13.25;3.63;;;;;;;1.44;92.45;101599.66;5030465;28;20434;-68
2022/01/06 02:06:08;;;;;;;15.93;4.38;;;;;;;1.42;92.67;101599.69;5030305;28;20029;-68
2022/01/06 02:08:33;;;;;;;16.35;4.30;;;;;;;1.40;92.33;101605.84;5021393;28;20459;-67
2022/01/06 02:10:59;;;;;;;13.93;3.55;;;;;;;1.38;92.51;101605.91;5030528;28;20056;-68
2022/01/06 02:13:28;;;;;;;23.05;3.83;;;;;;;1.36;92.26;101605.06;5030273;28;20112;-68
2022/01/06 02:15:54;;;;;;;19.40;4.05;;;;;;;1.35;92.59;101611.22;5022266;28;20049;-67
2022/01/06 02:18:19;;;;;;;18.92;3.97;;;;;;;1.31;92.52;101600.88;5028536;28;20112;-68
2022/01/06 02:20:45;;;;;;;17.63;3.78;;;;;;;1.28;92.17;101607.03;5023124;28;20107;-68
2022/01/06 02:23:10;;;;;;;18.63;4.40;;;;;;;1.26;92.73;101608.84;5022605;28;20091;-68
2022/01/06 02:25:35;;;;;;;16.27;4.18;;;;;;;1.23;92.53;101616.75;5030117;28;20475;-68
2022/01/06 02:28:02;;;;;;;25.65;3.70;;;;;;;1.22;92.57;101617.69;5030040;28;20022;-68
2022/01/06 02:30:28;;;;;;;17.95;3.80;;;;;;;1.19;92.98;101618.59;5020832;28;20030;-68
2022/01/06 02:32:55;;;;;;;21.88;4.05;;;;;;;1.15;93.00;101619.59;5033828;28;20386;-67
2022/01/06 02:35:22;;;;;;;15.65;3.63;;;;;;;1.16;92.99;101620.44;5032944;28;20025;-67
2022/01/06 02:37:48;;;;;;;22.27;4.43;;;;;;;1.13;92.58;101618.75;5025091;28;20029;-67
2022/01/06 02:40:17;;;;;;;15.93;3.92;;;;;;;1.11;92.52;101618.78;5034105;28;20104;-68
2022/01/06 02:42:47;;;;;;;19.35;4.05;;;;;;;1.12;92.17;101619.66;5019762;28;20123;-67
2022/01/06 02:45:12;;;;;;;;;;;;;;;1.17;92.12;101619.56;5033175;28;20040;-68
2022/01/06 02:47:38;;;;;;;18.52;4.72;;;;;;;1.10;92.91;101624.06;5034152;28;20362;-69
2022/01/06 02:50:06;;;;;;;23.05;5.18;;;;;;;1.04;92.97;101617.22;5033022;28;20080;-69
2022/01/06 02:52:31;;;;;;;19.92;4.88;;;;;;;1.05;93.09;101613.72;5033712;28;20076;-69
2022/01/06 02:54:56;;;;;;;19.58;5.30;;;;;;;1.05;93.20;101615.44;5028548;28;20026;-69
2022/01/06 02:57:21;;;;;;;14.80;3.92;;;;;;;1.03;93.41;101620.75;5027385;28;20033;-69
2022/01/06 02:59:47;;;;;;;21.73;4.75;;;;;;;1.02;93.21;101620.78;5033866;28;20425;-69
2022/01/06 03:02:12;;;;;;;17.33;4.85;;;;;;;1.01;93.44;101616.44;5033934;28;20052;-69
2022/01/06 03:04:38;;;;;;;17.58;5.07;;;;;;;0.98;93.27;101625.19;5029980;28;20022;-69
2022/01/06 03:07:03;;;;;;;21.02;4.72;;;;;;;0.97;93.17;101627.88;5013812;28;20026;-68
2022/01/06 03:09:37;;;;;;;21.10;4.13;;;;;;;0.97;93.05;101618.28;5013918;28;20096;-69
2022/01/06 03:12:06;;;;;;;21.67;4.50;;;;;;;0.94;93.50;101627.97;5013610;28;20074;-69
2022/01/06 03:14:32;;;;;;;22.10;4.40;;;;;;;0.94;93.07;101627.97;5014113;28;20110;-69
2022/01/06 03:16:58;;;;;;;18.52;4.50;;;;;;;0.92;93.31;101623.59;5013916;28;20071;-68
2022/01/06 03:19:23;;;;;;;20.27;4.15;;;;;;;0.90;93.14;101627.19;5013770;28;20105;-68
2022/01/06 03:21:48;;;;;;;22.55;3.95;;;;;;;0.88;93.09;101635.06;5013519;28;20029;-68
2022/01/06 03:24:13;;;;;;;23.70;4.63;;;;;;;0.89;93.77;101633.28;5013707;28;20041;-69
2022/01/06 03:26:39;;;;;;;21.33;3.88;;;;;;;0.86;93.39;101634.22;5012185;28;20079;-69
2022/01/06 03:29:04;;;;;;;20.63;4.28;;;;;;;0.86;92.91;101636.81;5013517;28;20034;-69
2022/01/06 03:31:29;;;;;;;15.57;3.97;;;;;;;0.85;93.21;101648.19;5026779;28;20030;-68
2022/01/06 03:33:54;;;;;;;17.23;4.55;;;;;;;0.84;92.88;101649.09;5029672;28;20075;-68
2022/01/06 03:36:20;;;;;;;21.17;3.97;;;;;;;0.81;93.00;101651.75;5033196;28;20312;-69
2022/01/06 03:38:45;;;;;;;17.38;3.67;;;;;;;0.82;93.42;101652.66;5029568;28;20088;-68
2022/01/06 03:41:10;;;;;;;18.80;4.00;;;;;;;0.80;93.19;101655.28;5022315;28;20029;-69
2022/01/06 03:43:35;;;;;;;20.38;3.95;;;;;;;0.80;93.62;101654.41;5032329;28;20118;-69
2022/01/06 03:46:01;;;;;;;19.50;3.95;;;;;;;0.78;93.56;101658.81;5029510;28;20025;-70
2022/01/06 03:48:26;;;;;;;24.48;4.93;;;;;;;0.76;93.62;101660.63;5032892;28;20113;-70
2022/01/06 03:50:51;;;;;;;18.00;4.28;;;;;;;0.75;93.76;101662.38;5033037;28;20475;-69
2022/01/06 03:53:16;;;;;;;17.17;3.70;;;;;;;0.75;93.95;101659.78;5032936;28;20022;-69
2022/01/06 03:55:42;;;;;;;24.10;4.18;;;;;;;0.73;93.53;101664.16;5017803;28;20456;-68
2022/01/06 03:58:10;;;;;;;19.42;4.60;;;;;;;0.73;93.65;101659.81;5013242;28;20037;-68
2022/01/06 04:00:35;;;;;;;17.80;4.43;;;;;;;0.74;93.82;101666.72;5012683;28;20030;-69
2022/01/06 04:03:00;;;;;;;17.70;5.05;;;;;;;0.74;93.95;101661.50;5011863;28;20087;-68
2022/01/06 04:05:26;;;;;;;17.35;4.10;;;;;;;0.70;93.42;101651.13;5010948;28;20028;-69
2022/01/06 04:07:51;;;;;;;15.95;4.07;;;;;;;0.72;93.80;101660.69;5010753;28;20161;-69
2022/01/06 04:10:16;;;;;;;22.83;4.30;;;;;;;0.70;94.06;101652.03;5010924;28;20034;-68
2022/01/06 04:12:41;;;;;;;21.70;3.85;;;;;;;0.70;93.63;101657.25;5011105;28;20084;-68
2022/01/06 04:15:11;;;;;;;19.58;4.25;;;;;;;0.67;93.76;101657.31;5010989;28;20026;-68
2022/01/06 04:17:36;;;;;;;;;;;;;;;0.74;93.43;101660.66;5011450;28;20026;-69
2022/01/06 04:20:03;;;;;;;22.33;3.63;;;;;;;0.67;93.81;101667.78;5012692;28;19932;-68
2022/01/06 04:22:28;;;;;;;17.83;4.07;;;;;;;0.67;93.71;101665.16;5012556;28;20026;-69
2022/01/06 04:24:53;;;;;;;18.02;3.95;;;;;;;0.67;94.23;101672.16;5012337;28;20033;-69
2022/01/06 04:27:19;;;;;;;21.00;4.40;;;;;;;0.67;94.26;101680.84;5012234;28;20066;-68
2022/01/06 04:29:44;;;;;;;19.10;4.35;;;;;;;0.68;94.28;101686.94;5011801;28;20456;-68
2022/01/06 04:32:09;;;;;;;18.83;4.32;;;;;;;0.66;93.90;101686.97;5026487;28;20044;-68
2022/01/06 04:34:35;;;;;;;18.55;3.85;;;;;;;0.65;94.06;101681.75;5031900;28;20646;-68
2022/01/06 04:37:01;;;;;;;22.77;3.92;;;;;;;0.65;94.27;101685.25;5031954;28;20021;-68
2022/01/06 04:39:26;;;;;;;24.05;4.07;;;;;;;0.64;93.94;101677.44;5027018;28;20042;-68
2022/01/06 04:41:51;;;;;;;20.17;3.95;;;;;;;0.62;94.07;101682.69;5031934;28;20040;-68
2022/01/06 04:44:17;;;;;;;23.90;4.22;;;;;;;0.61;93.53;101683.59;5031974;28;20021;-68
2022/01/06 04:46:44;;;;;;;19.17;3.72;;;;;;;0.60;94.20;101689.72;5031839;28;20170;-68
2022/01/06 04:49:10;;;;;;;18.38;4.20;;;;;;;0.60;94.25;101687.13;5017175;28;20058;-67
2022/01/06 04:51:35;;;;;;;22.35;4.18;;;;;;;0.59;93.97;101695.84;5031847;28;20029;-68
2022/01/06 04:54:01;;;;;;;25.33;4.63;;;;;;;0.59;94.31;101692.38;5031421;28;20041;-68
2022/01/06 04:56:26;;;;;;;19.15;4.32;;;;;;;0.57;94.60;101688.91;5030742;28;20021;-68
2022/01/06 04:58:52;;;;;;;19.73;3.50;;;;;;;0.57;94.21;101699.34;5025835;28;20033;-68
2022/01/06 05:01:17;;;;;;;19.98;3.92;;;;;;;0.54;94.37;101690.69;5031347;28;20035;-68
2022/01/06 05:03:42;;;;;;;19.27;3.60;;;;;;;0.51;94.07;101692.53;5025603;28;20032;-68
2022/01/06 05:06:08;;;;;;;24.02;3.90;;;;;;;0.52;93.90;101699.47;5025176;28;20116;-68
2022/01/06 05:08:33;;;;;;;17.88;4.45;;;;;;;0.51;94.07;101697.75;5031182;28;20125;-68
2022/01/06 05:10:58;;;;;;;19.05;4.07;;;;;;;0.49;93.91;101710.84;5031385;28;20033;-69
2022/01/06 05:13:24;;;;;;;16.15;3.65;;;;;;;0.47;93.78;101706.56;5028046;28;20538;-68
2022/01/06 05:15:49;;;;;;;17.25;3.97;;;;;;;0.45;93.88;101714.44;5020730;28;20467;-69
2022/01/06 05:18:14;;;;;;;25.33;3.97;;;;;;;0.42;93.93;101716.22;5031196;28;20030;-69
2022/01/06 05:20:42;;;;;;;16.45;3.70;;;;;;;0.43;93.81;101710.97;5031119;28;20390;-69
2022/01/06 05:23:08;;;;;;;16.23;3.67;;;;;;;0.41;93.61;101720.59;5027637;28;20029;-70
2022/01/06 05:25:34;;;;;;;23.08;3.83;;;;;;;0.39;93.63;101717.16;5029285;28;20033;-70
2022/01/06 05:27:59;;;;;;;20.23;4.65;;;;;;;0.35;93.50;101721.59;5031145;28;20385;-70
2022/01/06 05:30:24;;;;;;;21.30;3.92;;;;;;;0.38;93.28;101719.81;5030726;28;20471;-68
2022/01/06 05:32:50;;;;;;;12.13;3.70;;;;;;;0.38;93.54;101727.63;5025370;28;20041;-69
2022/01/06 05:35:15;;;;;;;15.00;4.18;;;;;;;0.35;94.21;101728.53;5025708;28;20026;-69
2022/01/06 05:37:41;;;;;;;16.50;3.70;;;;;;;0.34;93.89;101732.91;5028468;28;20032;-68
2022/01/06 05:40:06;;;;;;;24.35;3.97;;;;;;;0.32;93.68;101736.47;5030626;28;20029;-68
2022/01/06 05:42:32;;;;;;;19.70;4.13;;;;;;;0.31;93.87;101737.34;5030764;28;20033;-69
2022/01/06 05:44:57;;;;;;;15.68;3.88;;;;;;;0.29;93.79;101734.78;5029465;28;20376;-68
2022/01/06 05:47:22;;;;;;;19.63;4.13;;;;;;;0.29;93.56;101746.97;5030692;28;20108;-68
2022/01/06 05:49:48;;;;;;;18.13;3.80;;;;;;;0.28;93.77;101745.25;5029587;28;20060;-68
2022/01/06 05:52:13;;;;;;;19.23;3.95;;;;;;;0.27;93.59;101749.63;5023590;28;20037;-68
2022/01/06 05:54:39;;;;;;;17.38;3.72;;;;;;;0.24;93.67;101744.44;5030472;28;20071;-68
2022/01/06 05:57:06;;;;;;;19.77;3.45;;;;;;;0.23;93.76;101749.69;5030733;28;20033;-68
2022/01/06 05:59:32;;;;;;;16.23;4.28;;;;;;;0.20;93.45;101755.88;5027481;28;20399;-68
2022/01/06 06:01:58;;;;;;;13.63;3.83;;;;;;;0.20;93.14;101754.97;5030287;28;20037;-68
2022/01/06 06:04:23;;;;;;;9.32;3.05;;;;;;;0.16;92.83;101760.25;5022591;28;20026;-68
2022/01/06 06:06:48;;;;;;;14.70;3.60;;;;;;;0.15;93.25;101763.78;5027674;28;20041;-69
2022/01/06 06:09:13;;;;;;;16.33;3.70;;;;;;;0.13;93.31;101773.41;5030270;28;20463;-69
2022/01/06 06:11:39;;;;;;;13.32;3.83;;;;;;;0.07;93.14;101773.50;5030409;28;20051;-69
2022/01/06 06:14:04;;;;;;;20.40;3.85;;;;;;;0.07;93.40;101772.66;5023449;28;20128;-69
2022/01/06 06:16:29;;;;;;;18.33;4.47;;;;;;;0.04;93.77;101777.94;5030376;28;20044;-69
2022/01/06 06:18:55;;;;;;;17.83;4.30;;;;;;;0.03;93.47;101786.63;5030184;28;20021;-69
2022/01/06 06:21:20;;;;;;;15.10;3.65;;;;;;;0.01;93.77;101786.66;5029662;28;20030;-69
2022/01/06 06:23:45;;;;;;;18.13;4.20;;;;;;;0.01;93.73;101786.66;5030177;28;20088;-69
2022/01/06 06:26:11;;;;;;;16.02;3.85;;;;;;;-0.02;93.53;101789.31;5030075;28;20467;-70
2022/01/06 06:28:37;;;;;;;18.08;4.43;;;;;;;-0.04;93.36;101783.28;5029038;28;20099;-69
2022/01/06 06:31:02;;;;;;;20.65;3.80;;;;;;;-0.05;93.30;101781.53;5030080;28;20100;-69
2022/01/06 06:33:27;;;;;;;19.50;4.53;;;;;;;-0.06;93.27;101788.50;5015978;28;20026;-69
2022/01/06 06:35:53;;;;;;;17.90;4.43;;;;;;;-0.06;93.63;101800.72;5022888;28;20049;-69
2022/01/06 06:38:19;;;;;;;19.85;3.97;;;;;;;-0.09;93.50;101796.41;5021801;28;20025;-68
2022/01/06 06:40:44;;;;;;;19.05;4.32;;;;;;;-0.10;93.54;101788.59;5029638;28;20030;-68
2022/01/06 06:43:13;;;;;;;16.75;4.32;;;;;;;-0.12;93.59;101795.59;5030148;28;20033;-69
2022/01/06 06:45:38;;;;;;;15.38;4.78;;;;;;;-0.12;93.44;101796.44;5030089;28;20121;-70
2022/01/06 06:48:03;;;;;;;18.40;4.32;;;;;;;-0.14;93.99;101794.75;5028648;28;20519;-68
2022/01/06 06:50:29;;;;;;;13.35;3.92;;;;;;;-0.14;93.80;101800.00;5025431;28;20511;-68
2022/01/06 06:52:54;;;;;;;17.55;4.45;;;;;;;-0.15;93.85;101806.09;5020656;28;20036;-69
2022/01/06 06:55:19;;;;;;;20.15;4.68;;;;;;;-0.19;93.88;101808.75;5021856;28;20442;-69
2022/01/06 06:57:44;;;;;;;17.92;4.15;;;;;;;-0.20;93.92;101809.66;5029295;28;20325;-69
2022/01/06 07:00:11;;;;;;;20.13;4.18;;;;;;;-0.21;93.94;101814.88;5028791;28;20040;-67
2022/01/06 07:02:36;;;;;;;15.77;3.95;;;;;;;-0.23;94.15;101817.53;5029886;28;20025;-68
2022/01/06 07:05:02;;;;;;;16.77;4.20;;;;;;;-0.24;93.95;101815.78;5029205;28;20040;-69
2022/01/06 07:07:27;;;;;;;15.73;4.63;;;;;;;-0.25;94.46;101821.03;5022124;28;20043;-68
2022/01/06 07:09:53;;;;;;;17.30;4.15;;;;;;;-0.27;94.31;101817.59;5027938;28;20030;-69
2022/01/06 07:12:18;;;;;;;17.55;4.68;;;;;;;-0.27;94.10;101828.03;5018043;28;20029;-68
2022/01/06 07:14:44;;;;;;;17.85;4.55;;;;;;;-0.28;93.72;101831.56;5028816;28;20416;-69
2022/01/06 07:17:09;;;;;;;22.88;4.65;;;;;;;-0.29;94.05;101830.66;5021039;28;20035;-68
2022/01/06 07:19:35;;;;;;;18.40;4.57;;;;;;;-0.29;93.97;101837.66;5020218;28;20075;-68
2022/01/06 07:22:00;;;;;;;16.35;4.00;;;;;;;-0.30;94.42;101848.97;5019727;28;20399;-68
2022/01/06 07:24:25;;;;;;;14.57;3.75;;;;;;;-0.32;94.37;101856.81;5022051;28;20050;-68
2022/01/06 07:26:51;;;;;;;21.10;4.00;;;;;;;-0.35;93.81;101851.66;5015557;28;20395;-68
2022/01/06 07:29:16;;;;;;;18.77;4.38;;;;;;;-0.34;93.93;101852.50;5032050;28;20046;-69
2022/01/06 07:31:42;;;;;;;14.77;4.28;;;;;;;-0.36;94.25;101854.28;5017232;28;20097;-68
2022/01/06 07:34:07;;;;;;;15.05;4.60;;;;;;;-0.36;93.82;101851.69;5018677;28;20121;-68
2022/01/06 07:36:33;;;;;;;17.77;5.15;;;;;;;-0.37;94.14;101856.03;5013245;28;20026;-68
2022/01/06 07:38:58;;;;;;;15.02;4.35;;;;;;;-0.39;93.97;101860.41;5016609;28;20038;-68
2022/01/06 07:41:24;;;;;;;17.58;3.90;;;;;;;-0.39;94.10;101861.25;5012836;28;20040;-68
2022/01/06 07:43:49;;;;;;;18.50;4.28;;;;;;;-0.42;94.30;101863.94;5014229;28;20104;-68
2022/01/06 07:46:14;;;;;;;12.48;3.78;;;;;;;-0.42;94.32;101857.84;5015232;28;20395;-69
2022/01/06 07:48:56;;;;;;;16.90;4.25;;;;;;;-0.43;94.66;101863.97;5017238;28;20034;-69
2022/01/06 07:51:27;;;;;;;14.60;3.92;;;;;;;-0.46;94.44;101858.78;5015914;28;20121;-68
2022/01/06 07:53:52;;;;;;;18.27;4.28;;;;;;;-0.47;95.03;101863.13;5012426;28;20411;-67
2022/01/06 07:56:18;;;;;;;18.23;4.00;;;;;;;-0.49;94.77;101864.03;5016273;28;20060;-69
2022/01/06 07:58:43;;;;;;;16.45;4.65;;;;;;;-0.50;94.95;101864.91;5022199;28;20056;-68
2022/01/06 08:01:10;;;;;;;13.10;3.85;;;;;;;-0.50;94.79;101862.31;5032612;28;20499;-69
2022/01/06 08:03:35;;;;;;;18.02;3.95;;;;;;;-0.51;94.83;101863.22;5032441;28;20121;-69
2022/01/06 08:06:00;;;;;;;19.02;4.60;;;;;;;-0.50;95.48;101872.75;5030433;28;20112;-70
2022/01/06 08:08:25;;;;;;;16.48;4.47;;;;;;;-0.51;95.12;101866.66;5031600;28;20037;-69
2022/01/06 08:10:51;;;;;;;18.60;4.85;;;;;;;-0.51;95.41;101871.88;5031121;28;20025;-70
2022/01/06 08:13:16;;;;;;;17.60;5.35;;;;;;;-0.50;95.22;101872.75;5043313;28;20063;-68
2022/01/06 08:15:41;;;;;;;18.85;5.30;;;;;;;-0.48;95.37;101874.47;5050108;28;20455;-69
2022/01/06 08:18:07;;;;;;;18.88;5.63;;;;;;;-0.48;95.51;101877.06;5032860;28;20064;-69
2022/01/06 08:20:34;;;;;;;22.98;6.32;;;;;;;-0.47;95.40;101876.16;5044255;28;20017;-70
2022/01/06 08:22:59;;;;;;;27.73;8.30;;;;;;;-0.44;95.92;101883.09;5030148;28;20045;-69
2022/01/06 08:25:25;;;;;;;15.88;6.43;;;;;;;-0.45;96.14;101876.16;5034887;28;20024;-69
2022/01/06 08:27:50;;;;;;;19.50;6.70;;;;;;;-0.42;96.12;101883.94;5042041;28;20434;-69
2022/01/06 08:30:15;;;;;;;15.77;6.38;;;;;;;-0.41;96.33;101883.06;5031101;28;20047;-69
2022/01/06 08:32:40;;;;;;;21.50;6.70;;;;;;;-0.40;96.33;101888.28;5020912;28;20034;-69
2022/01/06 08:35:06;;;;;;;16.83;6.47;;;;;;;-0.38;96.51;101890.84;5026596;28;20064;-70
2022/01/06 08:37:31;;;;;;;27.48;8.05;;;;;;;-0.37;96.32;101887.34;5022863;28;20108;-69
2022/01/06 08:39:57;;;;;;;22.77;7.85;;;;;;;-0.33;96.83;101882.94;5017778;28;20069;-69
2022/01/06 08:42:22;;;;;;;28.40;8.50;;;;;;;-0.32;97.05;101876.84;5020324;28;20041;-69
2022/01/06 08:44:48;;;;;;;23.77;7.25;;;;;;;-0.28;97.24;101886.38;5030927;28;20033;-71
2022/01/06 08:47:13;;;;;;;27.90;8.68;;;;;;;-0.26;96.97;101885.44;5021315;28;20034;-70
2022/01/06 08:49:40;;;;;;;20.02;8.13;;;;;;;-0.23;97.35;101893.25;5035028;28;20053;-70
2022/01/06 08:52:06;;;;;;;21.33;8.65;;;;;;;-0.19;97.31;101901.88;5016485;28;20105;-70
2022/01/06 08:54:31;;;;;;;27.17;8.75;;;;;;;-0.15;97.82;101903.59;5029299;28;20132;-70
2022/01/06 08:56:57;;;;;;;25.65;9.15;;;;;;;-0.11;97.48;101907.00;5021933;28;20472;-69
2022/01/06 08:59:22;;;;;;;26.77;9.38;;;;;;;-0.07;98.04;101903.44;5037493;28;20069;-71
2022/01/06 09:01:47;;;;;;;27.80;9.73;;;;;;;-0.03;97.84;101906.00;5028835;28;20021;-71
2022/01/06 09:04:12;;;;;;;28.65;10.05;;;;;;;0.02;98.04;101903.31;5022806;28;20061;-72
2022/01/06 09:06:38;;;;;;;29.63;10.00;;;;;;;0.08;98.65;101910.19;5015271;28;20508;-69
2022/01/06 09:09:03;;;;;;;26.98;9.80;;;;;;;0.13;98.51;101905.75;5016033;28;20044;-70
2022/01/06 09:11:29;;;;;;;28.30;11.10;;;;;;;0.21;98.79;101909.09;5030298;28;20041;-69
2022/01/06 09:13:54;;;;;;;36.05;11.90;;;;;;;0.29;99.20;101906.38;5031473;28;20384;-69
2022/01/06 09:16:19;;;;;;;39.17;12.23;;;;;;;0.36;98.86;101911.44;5025657;28;20387;-70
2022/01/06 09:18:44;;;;;;;31.95;11.95;;;;;;;0.46;99.01;101906.06;5024194;28;20040;-69
2022/01/06 09:21:10;;;;;;;33.38;11.13;;;;;;;0.53;99.61;101911.19;5032983;28;20122;-70
2022/01/06 09:23:36;;;;;;;26.73;10.55;;;;;;;0.64;99.13;101923.19;5019808;28;20044;-69
2022/01/06 09:26:01;;;;;;;30.40;10.38;;;;;;;0.74;99.72;101916.91;5015367;28;20049;-69
2022/01/06 09:28:27;;;;;;;31.48;10.93;;;;;;;0.81;99.45;101915.91;5012621;28;20029;-69
2022/01/06 09:30:55;;;;;;;27.85;10.13;;;;;;;0.91;99.46;101921.81;5016643;28;20561;-70
2022/01/06 09:33:21;;;;;;;32.28;11.10;;;;;;;1.02;99.29;101927.72;5027301;28;20057;-69
2022/01/06 09:35:47;;;;;;;43.60;12.10;;;;;;;1.15;99.52;101924.84;5032668;28;20040;-69
2022/01/06 09:38:13;;;;;;;32.58;10.68;;;;;;;1.26;99.65;101921.13;5031528;28;20044;-69
2022/01/06 09:40:44;;;;;;;24.40;9.98;;;;;;;1.37;99.21;101930.53;5032195;28;20083;-68
2022/01/06 09:43:12;;;;;;;27.25;9.95;;;;;;;1.43;99.04;101936.50;5027288;28;20026;-69
2022/01/06 09:45:40;;;;;;;22.42;9.05;;;;;;;1.54;98.83;101933.63;5030012;28;20469;-68
2022/01/06 09:48:06;;;;;;;33.38;9.60;;;;;;;1.60;98.55;101930.00;5029984;28;20104;-68
2022/01/06 09:50:32;;;;;;;33.75;10.82;;;;;;;1.74;98.21;101932.34;5029986;28;20759;-68
2022/01/06 09:52:57;;;;;;;29.70;9.52;;;;;;;1.84;98.17;101928.63;5026658;28;20048;-70
2022/01/06 09:55:23;;;;;;;30.08;9.45;;;;;;;1.96;98.07;101933.56;5030535;28;20022;-69
2022/01/06 09:57:59;;;;;;;23.40;9.30;;;;;;;2.10;98.11;101937.63;5030583;28;20380;-69
2022/01/06 10:00:30;;;;;;;34.85;9.80;;;;;;;2.19;97.85;101933.03;5028957;28;20040;-68
2022/01/06 10:02:57;;;;;;;30.77;9.35;;;;;;;2.33;98.03;101940.59;5021799;28;20025;-69
2022/01/06 10:05:24;;;;;;;23.70;8.15;;;;;;;2.47;98.01;101939.38;5030609;28;20041;-68
2022/01/06 10:07:49;;;;;;;33.67;9.25;;;;;;;2.55;97.57;101940.03;5026226;28;20061;-68
2022/01/06 10:10:15;;;;;;;30.40;9.52;;;;;;;2.67;97.00;101939.72;5017552;28;20029;-70
2022/01/06 10:12:42;;;;;;;38.50;9.02;;;;;;;2.76;96.85;101936.00;5014351;28;20059;-69
2022/01/06 10:15:19;;;;;;;22.25;8.55;;;;;;;2.87;96.34;101936.56;5028581;28;20030;-69
2022/01/06 10:17:46;;;;;;;26.70;8.32;;;;;;;3.03;96.36;101936.16;5016301;28;20495;-69
2022/01/06 10:20:14;;;;;;;26.38;7.10;;;;;;;3.15;95.78;101933.19;5010534;28;20026;-68
2022/01/06 10:22:48;;;;;;;23.48;7.10;;;;;;;3.18;94.89;101930.50;5013266;28;20543;-70
2022/01/06 10:25:14;;;;;;;24.38;7.82;;;;;;;3.21;94.40;101932.16;5021743;28;20045;-69
2022/01/06 10:27:41;;;;;;;23.17;7.03;;;;;;;3.32;95.13;101928.31;5028665;28;20025;-70
2022/01/06 10:30:08;;;;;;;24.13;7.45;;;;;;;3.39;93.91;101929.00;5016023;28;20052;-70
2022/01/06 10:32:37;;;;;;;27.55;6.88;;;;;;;3.48;93.60;101930.47;5011168;28;20471;-69
2022/01/06 10:35:03;;;;;;;;;;;;;;;3.59;94.52;101930.19;5009086;28;20022;-70
2022/01/06 10:37:35;;;;;;;17.60;6.25;;;;;;;3.74;93.94;101923.59;5014062;28;19936;-70
2022/01/06 10:40:26;;;;;;;21.05;6.82;;;;;;;3.82;92.89;101922.47;5009929;28;20036;-70
2022/01/06 10:42:55;;;;;;;20.38;6.07;;;;;;;3.90;92.91;101919.59;5014227;28;20048;-70
2022/01/06 10:45:26;;;;;;;19.40;6.18;;;;;;;3.98;92.62;101925.47;5011773;28;20054;-70
2022/01/06 10:47:54;;;;;;;24.05;6.68;;;;;;;4.06;92.15;101922.59;5014132;28;20371;-70
2022/01/06 10:50:22;;;;;;;19.65;5.70;;;;;;;4.13;92.17;101924.13;5011833;28;20068;-69
2022/01/06 10:52:50;;;;;;;19.05;5.70;;;;;;;4.17;91.62;101923.09;5012576;28;20084;-69
2022/01/06 10:55:23;;;;;;;14.75;5.55;;;;;;;4.24;90.00;101924.63;5015895;28;20033;-69
2022/01/06 10:58:04;;;;;;;13.60;5.18;;;;;;;4.30;89.92;101928.84;5018666;28;20467;-69
2022/01/06 11:00:46;;;;;;;18.30;5.70;;;;;;;4.36;89.64;101925.13;5028399;28;20065;-71
2022/01/06 11:03:14;;;;;;;16.10;5.63;;;;;;;4.39;89.59;101923.25;5014919;28;20057;-70
2022/01/06 11:05:59;;;;;;;16.58;5.20;;;;;;;4.44;89.30;101920.47;5025057;28;20471;-71
2022/01/06 11:08:28;;;;;;;16.20;5.50;;;;;;;4.50;88.84;101908.91;5031845;28;20390;-70
2022/01/06 11:11:30;;;;;;;21.98;5.80;;;;;;;4.54;88.28;101913.97;5023878;28;20115;-71
2022/01/06 11:13:49;;;;;;;18.95;5.53;;;;;;;4.59;88.09;101901.53;5015886;28;20037;-71
2022/01/06 11:16:16;;;;;;;17.88;4.90;;;;;;;4.69;88.35;101904.69;5025619;28;20032;-73
2022/01/06 11:18:53;;;;;;;15.82;5.68;;;;;;;4.77;88.96;101901.81;5012439;28;20462;-70
2022/01/06 11:21:34;;;;;;;23.80;5.72;;;;;;;4.82;87.82;101903.34;5009219;28;20549;-70
2022/01/06 11:24:09;;;;;;;18.40;4.93;;;;;;;4.91;87.60;101898.69;5011210;28;20113;-70
2022/01/06 11:26:34;;;;;;;15.52;5.78;;;;;;;4.98;87.39;101897.56;5010911;28;20029;-71
2022/01/06 11:29:00;;;;;;;19.67;6.18;;;;;;;5.03;87.63;101902.63;5010688;28;20033;-71